createdAt,value
2018-12-19T00:01:52.985Z,3.90
2018-12-19T00:04:22.833Z,3.76
2018-12-19T00:06:53.151Z,3.88
2018-12-19T00:09:20.405Z,3.71
2018-12-19T00:11:50.105Z,3.59
2018-12-19T00:14:17.429Z,3.76
2018-12-19T00:16:48.777Z,3.78
2018-12-19T00:19:19.760Z,3.73
2018-12-19T00:21:49.051Z,3.66
2018-12-19T00:24:16.906Z,3.71
2018-12-19T00:26:48.519Z,3.74
2018-12-19T00:29:18.055Z,3.85
2018-12-19T00:32:02.298Z,3.68
2018-12-19T00:34:34.228Z,3.71
2018-12-19T00:37:07.950Z,3.80
2018-12-19T00:39:35.477Z,3.81
2018-12-19T00:42:02.737Z,3.66
2018-12-19T00:44:29.956Z,3.63
2018-12-19T00:47:04.316Z,3.60
2018-12-19T00:49:31.576Z,3.59
2018-12-19T00:51:58.828Z,3.57
2018-12-19T00:54:26.053Z,3.55
2018-12-19T00:56:53.936Z,3.59
2018-12-19T00:59:21.174Z,3.57
2018-12-19T01:01:48.435Z,3.48
2018-12-19T01:04:15.665Z,3.55
2018-12-19T01:06:43.613Z,3.49
2018-12-19T01:09:15.886Z,3.39
2018-12-19T01:11:40.384Z,3.57
2018-12-19T01:14:09.710Z,3.28
2018-12-19T01:16:38.046Z,3.44
2018-12-19T01:19:06.325Z,3.45
2018-12-19T01:21:33.984Z,3.48
2018-12-19T01:24:01.249Z,3.30
2018-12-19T01:26:28.597Z,3.40
2018-12-19T01:28:55.848Z,3.26
2018-12-19T01:31:24.070Z,3.24
2018-12-19T01:33:52.356Z,3.27
2018-12-19T01:36:20.556Z,3.32
2018-12-19T01:38:50.049Z,3.35
2018-12-19T01:41:17.324Z,3.28
2018-12-19T01:43:44.564Z,3.19
2018-12-19T01:46:11.937Z,3.13
2018-12-19T01:48:39.156Z,3.17
2018-12-19T01:51:07.606Z,3.32
2018-12-19T01:53:34.970Z,3.18
2018-12-19T01:56:02.344Z,3.07
2018-12-19T01:58:29.624Z,3.06
2018-12-19T02:00:56.945Z,3.20
2018-12-19T02:03:27.692Z,3.04
2018-12-19T02:05:56.981Z,3.05
2018-12-19T02:08:24.316Z,3.03
2018-12-19T02:10:51.564Z,3.06
2018-12-19T02:13:18.787Z,3.00
2018-12-19T02:15:46.092Z,3.10
2018-12-19T02:18:16.197Z,3.06
2018-12-19T02:20:43.523Z,3.15
2018-12-19T02:23:10.780Z,3.19
2018-12-19T02:25:38.219Z,3.16
2018-12-19T02:28:06.565Z,3.12
2018-12-19T02:30:50.953Z,3.15
2018-12-19T02:33:18.308Z,3.17
2018-12-19T02:35:45.640Z,3.13
2018-12-19T02:38:14.120Z,3.16
2018-12-19T02:40:41.452Z,3.06
2018-12-19T02:43:08.762Z,3.09
2018-12-19T02:45:36.041Z,3.07
2018-12-19T02:48:03.283Z,3.14
2018-12-19T02:50:30.508Z,3.22
2018-12-19T02:52:57.822Z,3.18
2018-12-19T02:55:25.045Z,3.45
2018-12-19T02:57:53.388Z,3.42
2018-12-19T03:00:20.633Z,3.38
2018-12-19T03:02:47.894Z,3.30
2018-12-19T03:05:15.261Z,3.50
2018-12-19T03:07:42.536Z,3.26
2018-12-19T03:10:09.928Z,3.45
2018-12-19T03:12:37.264Z,3.34
2018-12-19T03:15:04.797Z,3.28
2018-12-19T03:17:35.279Z,3.51
2018-12-19T03:20:02.660Z,3.27
2018-12-19T03:22:30.062Z,3.28
2018-12-19T03:24:57.314Z,3.19
2018-12-19T03:27:24.601Z,3.39
2018-12-19T03:29:51.834Z,3.26
2018-12-19T03:32:19.234Z,3.33
2018-12-19T03:34:46.448Z,3.28
2018-12-19T03:37:13.690Z,3.43
2018-12-19T03:39:40.908Z,3.45
2018-12-19T03:42:08.132Z,3.19
2018-12-19T03:44:35.364Z,3.35
2018-12-19T03:47:02.640Z,3.42
2018-12-19T03:49:30.201Z,3.51
2018-12-19T03:51:57.469Z,3.30
2018-12-19T03:54:25.249Z,3.16
2018-12-19T03:56:52.893Z,3.35
2018-12-19T03:59:20.128Z,3.11
2018-12-19T04:01:47.372Z,3.34
2018-12-19T04:04:14.598Z,3.24
2018-12-19T04:06:42.876Z,3.22
2018-12-19T04:09:10.105Z,3.10
2018-12-19T04:11:37.346Z,3.34
2018-12-19T04:14:05.735Z,3.13
2018-12-19T04:16:32.971Z,3.21
2018-12-19T04:19:00.269Z,3.21
2018-12-19T04:21:30.676Z,3.33
2018-12-19T04:23:57.913Z,3.20
2018-12-19T04:26:26.141Z,3.29
2018-12-19T04:28:53.467Z,3.18
2018-12-19T04:31:21.829Z,3.33
2018-12-19T04:33:49.058Z,3.12
2018-12-19T04:36:16.447Z,3.19
2018-12-19T04:38:44.016Z,3.28
2018-12-19T04:41:11.492Z,3.22
2018-12-19T04:43:38.864Z,3.28
2018-12-19T04:46:06.080Z,3.44
2018-12-19T04:48:33.300Z,3.28
2018-12-19T04:51:00.580Z,2.90
2018-12-19T04:53:27.901Z,3.20
2018-12-19T04:55:55.140Z,3.04
2018-12-19T04:58:22.361Z,3.22
2018-12-19T05:00:49.597Z,3.11
2018-12-19T05:03:16.837Z,2.90
2018-12-19T05:05:44.062Z,3.00
2018-12-19T05:08:11.280Z,3.07
2018-12-19T05:10:40.507Z,2.88
2018-12-19T05:13:07.711Z,3.10
2018-12-19T05:15:35.929Z,2.83
2018-12-19T05:18:03.210Z,3.12
2018-12-19T05:20:30.446Z,3.03
2018-12-19T05:22:57.692Z,2.97
2018-12-19T05:25:24.941Z,2.98
2018-12-19T05:27:52.204Z,2.90
2018-12-19T05:30:20.479Z,3.17
2018-12-19T05:32:47.821Z,2.89
2018-12-19T05:35:16.049Z,2.91
2018-12-19T05:37:43.304Z,2.95
2018-12-19T05:40:10.548Z,3.07
2018-12-19T05:42:37.776Z,3.27
2018-12-19T05:45:06.848Z,2.97
2018-12-19T05:47:34.346Z,3.11
2018-12-19T05:50:14.526Z,2.89
2018-12-19T05:52:42.068Z,3.18
2018-12-19T05:55:09.336Z,2.98
2018-12-19T05:57:36.739Z,3.03
2018-12-19T06:00:07.015Z,3.17
2018-12-19T06:02:35.372Z,3.18
2018-12-19T06:05:18.372Z,3.13
2018-12-19T06:07:45.669Z,3.18
2018-12-19T06:10:14.004Z,3.08
2018-12-19T06:12:41.477Z,3.20
2018-12-19T06:15:08.905Z,3.10
2018-12-19T06:17:36.184Z,3.16
2018-12-19T06:20:04.942Z,3.13
2018-12-19T06:22:33.387Z,3.02
2018-12-19T06:25:05.228Z,3.12
2018-12-19T06:27:33.685Z,3.11
2018-12-19T06:30:00.950Z,3.30
2018-12-19T06:32:28.260Z,3.23
2018-12-19T06:34:55.544Z,3.23
2018-12-19T06:37:23.862Z,3.22
2018-12-19T06:39:51.206Z,3.16
2018-12-19T06:42:18.498Z,3.32
2018-12-19T06:44:47.884Z,3.35
2018-12-19T06:47:16.284Z,3.15
2018-12-19T06:49:44.589Z,3.26
2018-12-19T06:52:12.867Z,3.18
2018-12-19T06:54:40.232Z,3.17
2018-12-19T06:57:07.515Z,3.16
2018-12-19T06:59:34.876Z,3.40
2018-12-19T07:02:02.392Z,3.27
2018-12-19T07:04:29.644Z,3.40
2018-12-19T07:06:57.124Z,3.29
2018-12-19T07:09:24.479Z,3.26
2018-12-19T07:11:51.779Z,3.32
2018-12-19T07:14:21.148Z,3.28
2018-12-19T07:16:49.476Z,3.25
2018-12-19T07:19:18.756Z,3.28
2018-12-19T07:21:46.049Z,3.12
2018-12-19T07:24:16.116Z,3.20
2018-12-19T07:29:16.323Z,3.30
2018-12-19T07:31:44.380Z,3.13
2018-12-19T07:34:12.876Z,3.29
2018-12-19T07:36:40.129Z,3.15
2018-12-19T07:39:07.670Z,3.20
2018-12-19T07:41:34.968Z,3.27
2018-12-19T07:44:02.233Z,3.23
2018-12-19T07:46:30.536Z,3.16
2018-12-19T07:48:57.817Z,3.44
2018-12-19T07:51:25.052Z,3.19
2018-12-19T07:53:53.492Z,3.08
2018-12-19T07:56:20.746Z,3.08
2018-12-19T07:58:48.012Z,3.27
2018-12-19T08:01:15.297Z,3.28
2018-12-19T08:03:42.556Z,3.38
2018-12-19T08:06:09.812Z,3.50
2018-12-19T08:08:37.060Z,3.29
2018-12-19T08:11:04.309Z,3.31
2018-12-19T08:13:31.553Z,3.42
2018-12-19T08:15:58.800Z,3.30
2018-12-19T08:18:26.187Z,3.47
2018-12-19T08:20:53.550Z,3.33
2018-12-19T08:23:21.872Z,3.44
2018-12-19T08:25:50.290Z,3.42
2018-12-19T08:28:17.567Z,3.39
2018-12-19T08:30:44.845Z,3.39
2018-12-19T08:33:12.108Z,3.46
2018-12-19T08:35:39.349Z,3.51
2018-12-19T08:38:07.648Z,3.32
2018-12-19T08:40:34.892Z,3.44
2018-12-19T08:43:02.278Z,3.53
2018-12-19T08:45:30.140Z,3.45
2018-12-19T08:47:57.492Z,3.47
2018-12-19T08:50:26.764Z,3.68
2018-12-19T08:52:54.042Z,3.58
2018-12-19T08:55:21.372Z,3.58
2018-12-19T08:57:48.757Z,3.58
2018-12-19T09:00:16.017Z,3.69
2018-12-19T09:02:43.306Z,3.75
2018-12-19T09:05:10.549Z,3.80
2018-12-19T09:07:43.602Z,3.62
2018-12-19T09:10:10.892Z,3.64
2018-12-19T09:12:38.117Z,3.63
2018-12-19T09:15:06.382Z,3.69
2018-12-19T09:17:33.814Z,3.86
2018-12-19T09:20:03.709Z,3.79
2018-12-19T09:22:30.990Z,3.85
2018-12-19T09:24:58.473Z,3.59
2018-12-19T09:27:25.713Z,3.62
2018-12-19T09:29:53.029Z,3.84
2018-12-19T09:32:21.378Z,3.92
2018-12-19T09:34:48.634Z,3.76
2018-12-19T09:37:16.011Z,3.68
2018-12-19T09:39:43.272Z,3.62
2018-12-19T09:42:10.518Z,3.59
2018-12-19T09:44:37.804Z,3.96
2018-12-19T09:47:05.061Z,3.78
2018-12-19T09:49:32.350Z,3.77
2018-12-19T09:51:59.624Z,3.80
2018-12-19T09:54:26.860Z,3.98
2018-12-19T09:56:54.096Z,4.03
2018-12-19T09:59:21.348Z,3.81
2018-12-19T10:01:48.688Z,3.79
2018-12-19T10:04:15.926Z,4.08
2018-12-19T10:09:36.913Z,3.98
2018-12-19T10:12:04.208Z,4.00
2018-12-19T10:14:31.478Z,4.08
2018-12-19T10:16:58.825Z,3.76
2018-12-19T10:19:26.064Z,3.88
2018-12-19T10:21:53.316Z,3.86
2018-12-19T10:24:23.254Z,3.89
2018-12-19T10:26:50.550Z,4.24
2018-12-19T10:29:18.846Z,4.04
2018-12-19T10:31:46.263Z,4.09
2018-12-19T10:34:16.852Z,4.14
2018-12-19T10:36:44.096Z,4.02
2018-12-19T10:39:15.808Z,4.19
2018-12-19T10:41:43.067Z,3.92
2018-12-19T10:44:10.644Z,4.00
2018-12-19T10:46:39.245Z,4.07
2018-12-19T10:49:07.620Z,4.11
2018-12-19T10:51:34.911Z,3.95
2018-12-19T10:54:02.209Z,4.09
2018-12-19T10:56:29.511Z,4.25
2018-12-19T10:58:56.781Z,4.16
2018-12-19T11:01:24.057Z,4.29
2018-12-19T11:03:51.318Z,4.17
2018-12-19T11:06:18.584Z,4.22
2018-12-19T11:08:45.900Z,4.11
2018-12-19T11:11:13.156Z,4.27
2018-12-19T11:13:40.413Z,4.14
2018-12-19T11:16:08.706Z,4.31
2018-12-19T11:18:35.945Z,4.32
2018-12-19T11:21:03.425Z,4.08
2018-12-19T11:23:30.816Z,4.48
2018-12-19T11:25:58.064Z,4.39
2018-12-19T11:28:25.304Z,4.40
2018-12-19T11:30:53.569Z,4.36
2018-12-19T11:33:20.921Z,4.35
2018-12-19T11:35:48.974Z,4.36
2018-12-19T11:38:16.257Z,4.37
2018-12-19T11:40:43.529Z,4.81
2018-12-19T11:43:10.766Z,4.55
2018-12-19T11:45:38.060Z,4.48
2018-12-19T11:48:05.300Z,4.54
2018-12-19T11:50:32.560Z,4.55
2018-12-19T11:52:59.832Z,4.51
2018-12-19T11:55:27.593Z,4.32
2018-12-19T11:57:54.876Z,4.44
2018-12-19T12:00:22.111Z,4.46
2018-12-19T12:02:49.350Z,4.44
2018-12-19T12:05:16.808Z,4.35
2018-12-19T12:07:46.048Z,4.38
2018-12-19T12:10:13.332Z,4.48
2018-12-19T12:12:40.676Z,4.48
2018-12-19T12:15:08.997Z,4.25
2018-12-19T12:17:36.370Z,4.54
2018-12-19T12:20:05.513Z,4.48
2018-12-19T12:22:32.761Z,4.29
2018-12-19T12:25:00.022Z,4.44
2018-12-19T12:27:28.396Z,4.75
2018-12-19T12:29:57.740Z,4.52
2018-12-19T12:32:26.224Z,4.53
2018-12-19T12:34:53.629Z,4.52
2018-12-19T12:37:20.886Z,4.52
2018-12-19T12:39:48.248Z,4.58
2018-12-19T12:42:16.648Z,4.68
2018-12-19T12:44:44.367Z,4.58
2018-12-19T12:47:12.185Z,4.53
2018-12-19T12:49:39.641Z,4.47
2018-12-19T12:52:06.934Z,4.74
2018-12-19T12:54:34.532Z,4.52
2018-12-19T12:57:03.054Z,4.46
2018-12-19T12:59:30.566Z,4.59
2018-12-19T13:01:57.821Z,4.46
2018-12-19T13:04:25.111Z,4.46
2018-12-19T13:06:52.432Z,4.54
2018-12-19T13:09:19.709Z,4.47
2018-12-19T13:11:47.004Z,4.51
2018-12-19T13:14:16.736Z,4.48
2018-12-19T13:16:43.983Z,4.46
2018-12-19T13:19:11.246Z,4.69
2018-12-19T13:21:42.051Z,4.61
2018-12-19T13:24:11.424Z,4.82
2018-12-19T13:26:38.857Z,4.76
2018-12-19T13:29:06.111Z,4.50
2018-12-19T13:31:37.436Z,4.65
2018-12-19T13:34:05.756Z,4.61
2018-12-19T13:36:33.054Z,4.81
2018-12-19T13:39:01.325Z,4.64
2018-12-19T13:41:30.729Z,4.73
2018-12-19T13:43:57.952Z,4.74
2018-12-19T13:46:25.573Z,4.83
2018-12-19T13:48:52.838Z,4.75
2018-12-19T13:51:20.176Z,4.83
2018-12-19T13:53:47.531Z,4.99
2018-12-19T13:56:14.792Z,4.87
2018-12-19T13:58:42.584Z,4.82
2018-12-19T14:01:09.906Z,4.79
2018-12-19T14:03:37.384Z,4.84
2018-12-19T14:06:04.790Z,4.98
2018-12-19T14:08:32.177Z,4.98
2018-12-19T14:11:00.551Z,4.94
2018-12-19T14:13:27.797Z,4.83
2018-12-19T14:15:55.041Z,4.91
2018-12-19T14:18:22.325Z,4.97
2018-12-19T14:20:49.553Z,4.82
2018-12-19T14:23:16.780Z,4.84
2018-12-19T14:25:43.993Z,4.87
2018-12-19T14:28:11.232Z,4.82
2018-12-19T14:30:39.008Z,4.78
2018-12-19T14:33:07.277Z,4.94
2018-12-19T14:35:34.521Z,5.09
2018-12-19T14:38:02.816Z,5.00
2018-12-19T14:40:35.192Z,5.11
2018-12-19T14:43:04.448Z,4.95
2018-12-19T14:45:31.921Z,4.99
2018-12-19T14:47:59.284Z,4.92
2018-12-19T14:50:27.543Z,5.11
2018-12-19T14:52:54.797Z,5.26
2018-12-19T14:55:26.981Z,4.88
2018-12-19T14:57:54.366Z,4.91
2018-12-19T15:00:21.760Z,4.84
2018-12-19T15:02:49.140Z,4.93
2018-12-19T15:05:16.385Z,5.16
2018-12-19T15:07:44.672Z,5.06
2018-12-19T15:10:11.912Z,4.80
2018-12-19T15:12:39.283Z,4.91
2018-12-19T15:15:08.378Z,4.87
2018-12-19T15:17:36.700Z,4.96
2018-12-19T15:20:04.785Z,4.96
2018-12-19T15:22:32.087Z,5.01
2018-12-19T15:24:59.469Z,4.84
2018-12-19T15:27:26.723Z,4.92
2018-12-19T15:29:53.973Z,5.01
2018-12-19T15:32:22.308Z,5.05
2018-12-19T15:34:49.546Z,5.24
2018-12-19T15:37:17.845Z,4.99
2018-12-19T15:39:45.097Z,5.10
2018-12-19T15:42:12.341Z,5.08
2018-12-19T15:44:39.582Z,5.26
2018-12-19T15:47:06.824Z,5.26
2018-12-19T15:49:34.069Z,5.04
2018-12-19T15:52:01.332Z,5.16
2018-12-19T15:54:29.628Z,5.22
2018-12-19T15:56:56.871Z,5.24
2018-12-19T15:59:24.133Z,5.37
2018-12-19T16:01:51.426Z,5.33
2018-12-19T16:04:18.700Z,5.17
2018-12-19T16:07:02.856Z,5.31
2018-12-19T16:09:30.059Z,5.35
2018-12-19T16:11:57.299Z,5.31
2018-12-19T16:14:24.505Z,5.55
2018-12-19T16:16:51.740Z,5.46
2018-12-19T16:19:18.965Z,5.44
2018-12-19T16:21:46.188Z,5.38
2018-12-19T16:24:13.388Z,5.38
2018-12-19T16:26:40.600Z,5.28
2018-12-19T16:29:08.826Z,5.45
2018-12-19T16:31:36.064Z,5.46
2018-12-19T16:34:03.279Z,5.56
2018-12-19T16:36:30.508Z,5.48
2018-12-19T16:38:57.741Z,5.54
2018-12-19T16:41:24.960Z,5.57
2018-12-19T16:43:52.180Z,5.32
2018-12-19T16:46:19.392Z,5.44
2018-12-19T16:48:46.604Z,5.48
2018-12-19T16:51:13.852Z,5.36
2018-12-19T16:53:41.096Z,5.57
2018-12-19T16:56:08.302Z,5.65
2018-12-19T16:58:35.566Z,5.58
2018-12-19T17:01:12.528Z,5.54
2018-12-19T17:03:52.332Z,5.40
2018-12-19T17:06:32.021Z,5.60
2018-12-19T17:09:16.204Z,5.75
2018-12-19T17:11:58.893Z,5.55
2018-12-19T17:14:45.241Z,5.61
2018-12-19T17:17:30.231Z,5.77
2018-12-19T17:20:10.230Z,5.54
2018-12-19T17:22:47.868Z,5.75
2018-12-19T17:25:15.128Z,5.82
2018-12-19T17:27:42.350Z,5.69
2018-12-19T17:30:09.562Z,5.68
2018-12-19T17:32:37.061Z,5.79
2018-12-19T17:35:04.740Z,5.77
2018-12-19T17:37:31.980Z,5.60
2018-12-19T17:39:59.325Z,5.64
2018-12-19T17:42:26.544Z,5.63
2018-12-19T17:44:53.764Z,5.56
2018-12-19T17:47:21.008Z,5.65
2018-12-19T17:49:49.836Z,5.71
2018-12-19T17:52:34.028Z,5.50
2018-12-19T17:55:01.280Z,5.46
2018-12-19T17:57:28.604Z,5.45
2018-12-19T17:59:55.945Z,5.71
2018-12-19T18:02:23.289Z,5.42
2018-12-19T18:04:50.496Z,5.49
2018-12-19T18:07:18.840Z,5.51
2018-12-19T18:09:46.154Z,5.57
2018-12-19T18:12:13.349Z,5.47
2018-12-19T18:14:40.686Z,5.47
2018-12-19T18:17:07.935Z,5.42
2018-12-19T18:19:35.150Z,5.52
2018-12-19T18:22:02.353Z,5.37
2018-12-19T18:24:29.569Z,5.43
2018-12-19T18:26:56.776Z,5.41
2018-12-19T18:29:24.117Z,5.43
2018-12-19T18:31:51.465Z,5.60
2018-12-19T18:34:18.689Z,5.62
2018-12-19T18:36:46.074Z,5.54
2018-12-19T18:39:13.277Z,5.50
2018-12-19T18:41:40.500Z,5.66
2018-12-19T18:44:07.877Z,5.62
2018-12-19T18:46:35.084Z,5.50
2018-12-19T18:49:02.307Z,5.69
2018-12-19T18:51:29.700Z,5.52
2018-12-19T18:53:56.936Z,5.57
2018-12-19T18:56:24.279Z,5.50
2018-12-19T19:00:20.617Z,5.49
2018-12-19T19:02:48.010Z,5.80
2018-12-19T19:05:16.291Z,5.54
2018-12-19T19:07:43.652Z,5.67
2018-12-19T19:10:10.949Z,5.51
2018-12-19T19:12:38.268Z,5.69
2018-12-19T19:15:06.156Z,5.56
2018-12-19T19:17:33.718Z,5.55
2018-12-19T19:20:01.048Z,5.56
2018-12-19T19:22:28.369Z,5.45
2018-12-19T19:24:56.136Z,5.51
2018-12-19T19:27:23.442Z,5.71
2018-12-19T19:29:50.644Z,5.77
2018-12-19T19:32:19.081Z,5.64
2018-12-19T19:34:46.276Z,5.51
2018-12-19T19:37:13.702Z,5.57
2018-12-19T19:39:40.952Z,5.48
2018-12-19T19:42:08.408Z,5.60
2018-12-19T19:44:35.605Z,5.65
2018-12-19T19:47:04.264Z,5.51
2018-12-19T19:49:31.614Z,5.61
2018-12-19T19:51:58.944Z,5.53
2018-12-19T19:54:26.188Z,5.54
2018-12-19T19:56:53.510Z,5.72
2018-12-19T19:59:21.753Z,5.60
2018-12-19T20:01:49.243Z,5.68
2018-12-19T20:04:16.448Z,5.60
2018-12-19T20:06:43.725Z,5.53
2018-12-19T20:09:10.994Z,5.42
2018-12-19T20:11:38.345Z,5.51
2018-12-19T20:14:05.732Z,5.67
2018-12-19T20:16:37.537Z,5.60
2018-12-19T20:19:04.756Z,5.62
2018-12-19T20:21:32.081Z,5.64
2018-12-19T20:23:59.301Z,5.70
2018-12-19T20:26:26.600Z,5.70
2018-12-19T20:28:53.797Z,5.68
2018-12-19T20:31:21.035Z,5.80
2018-12-19T20:33:48.745Z,5.72
2018-12-19T20:36:16.039Z,5.68
2018-12-19T20:38:43.513Z,5.75
2018-12-19T20:41:10.748Z,5.70
2018-12-19T20:43:40.108Z,5.84
2018-12-19T20:46:07.593Z,5.67
2018-12-19T20:48:35.071Z,5.93
2018-12-19T20:51:02.300Z,5.84
2018-12-19T20:53:29.913Z,5.58
2018-12-19T20:56:03.593Z,5.70
2018-12-19T20:58:26.366Z,5.58
2018-12-19T21:00:53.719Z,5.71
2018-12-19T21:03:21.149Z,5.67
2018-12-19T21:12:45.532Z,5.79
2018-12-19T21:15:12.949Z,5.71
2018-12-19T21:17:46.442Z,5.84
2018-12-19T21:20:13.801Z,5.57
2018-12-19T21:22:41.129Z,5.66
2018-12-19T21:25:09.800Z,5.81
2018-12-19T21:27:37.305Z,5.73
2018-12-19T21:30:06.225Z,5.64
2018-12-19T21:32:33.920Z,5.87
2018-12-19T21:35:01.152Z,5.74
2018-12-19T21:37:28.471Z,5.63
2018-12-19T21:39:56.813Z,5.67
2018-12-19T21:42:24.922Z,5.71
2018-12-19T21:44:52.391Z,5.83
2018-12-19T21:47:20.256Z,5.69
2018-12-19T21:49:47.673Z,5.62
2018-12-19T21:52:14.982Z,5.70
2018-12-19T21:54:42.321Z,5.64
2018-12-19T21:57:09.589Z,5.59
2018-12-19T21:59:36.932Z,5.65
2018-12-19T22:02:04.334Z,5.59
2018-12-19T22:04:31.932Z,5.62
2018-12-19T22:06:59.260Z,5.76
2018-12-19T22:09:26.638Z,5.64
2018-12-19T22:11:54.044Z,5.71
2018-12-19T22:14:21.369Z,5.73
2018-12-19T22:16:54.493Z,5.59
2018-12-19T22:19:21.795Z,5.70
2018-12-19T22:21:49.136Z,5.62
2018-12-19T22:24:16.478Z,5.51
2018-12-19T22:26:43.966Z,5.67
2018-12-19T22:29:12.336Z,5.62
2018-12-19T22:31:39.652Z,5.50
2018-12-19T22:34:07.099Z,5.60
2018-12-19T22:36:34.290Z,5.64
2018-12-19T22:39:01.546Z,5.57
2018-12-19T22:41:31.133Z,5.67
2018-12-19T22:43:58.447Z,5.58
2018-12-19T22:46:25.912Z,5.77
2018-12-19T22:48:53.147Z,5.63
2018-12-19T22:51:20.476Z,5.58
2018-12-19T22:53:47.849Z,5.70
2018-12-19T22:56:15.173Z,5.80
2018-12-19T22:58:42.559Z,5.53
2018-12-19T23:01:16.459Z,5.63
2018-12-19T23:04:06.273Z,5.65
2018-12-19T23:06:35.208Z,5.66
2018-12-19T23:09:04.644Z,5.57
2018-12-19T23:11:34.112Z,5.70
2018-12-19T23:14:03.143Z,5.56
2018-12-19T23:16:38.781Z,5.80
2018-12-19T23:19:12.062Z,5.62
2018-12-19T23:21:45.777Z,5.52
2018-12-19T23:24:19.500Z,5.71
2018-12-19T23:26:48.775Z,5.69
2018-12-19T23:29:18.059Z,5.54
2018-12-19T23:31:46.954Z,5.50
2018-12-19T23:34:14.326Z,5.28
2018-12-19T23:36:41.765Z,5.53
2018-12-19T23:39:09.214Z,5.51
2018-12-19T23:41:36.660Z,5.59
2018-12-19T23:44:03.908Z,5.41
2018-12-19T23:46:33.471Z,5.47
2018-12-19T23:49:00.853Z,5.24
2018-12-19T23:51:28.236Z,5.45
2018-12-19T23:53:55.643Z,5.32
2018-12-19T23:56:22.897Z,5.57
2018-12-19T23:58:51.172Z,5.25
